Hlavní strana
METAR-TAF:

METAR-TAF

Letiště :

Ermelo, Jihoafrická republika

zeměpisná šířka: 26-29-44S, zeměpisná délka: 29-58-47E, výška: 1737 m

Aktuální stav počasí

Zpráva byla vytvořena před 7 hodinami a 47 minutami, v 12:50 UTC
Východní vítr 6 kt
Teplota 12°C
Vlhkost vzduchu 88%
Tlak 1027 hPa
Viditelnost 10 km a více
Oblačno až skoro zataženo ve výšce 800 ft
Zataženo ve výšce 2000 ft
slabý déšť

METAR: FAEO 051250Z 08006KT 9999 -RA BKN008 OVC020 12/10 Q1027

Čas: 22:37 (20:37 UTC)


TAF: chybějící

Stav a předpovědi počasí z více než 4 000 letišť (zprávy METAR a TAF).

Červené a žluté tečky na mapě představují dostupné meteorologické stanice.

Když kurzor umístíte na tečku, zobrazí se název stanice.

Pak kliknutím zobrazíte stav a předpověď počasí.

Chcete-li změnit mapu, kliknutím na zelené tlačítko se znaménkem +mapu přiblížíte, kliknutím na zelené tlačítko se znaménkem – mapu oddálíte a kliknutím na zelené šipky přejdete na sousední mapy.


METAR-TAF: